Time;durP1;ratioP1;P1;durP2;ratioP2;P2;SDS_P1;SDS_P2;PMS_P1;PMS_P2;Temp;Humidity;BMP_temperature;BMP_pressure;BME280_temperature;BME280_humidity;BME280_pressure;Samples;Min_cycle;Max_cycle;Signal;HPM_P1;HPM_P2
2020/12/21 00:01:49;;;;;;;11.27;4.53;;;;;;;20.94;45.43;100468.06;5013666;28;20061;-75
2020/12/21 00:04:15;;;;;;;7.97;4.18;;;;;;;20.95;45.44;100461.88;5013651;28;20057;-75
2020/12/21 00:06:41;;;;;;;7.80;4.00;;;;;;;20.94;45.49;100462.78;5013736;28;20859;-77
2020/12/21 00:09:06;;;;;;;8.30;4.00;;;;;;;20.94;45.59;100459.28;5013827;28;20046;-75
2020/12/21 00:11:36;;;;;;;8.73;4.03;;;;;;;20.92;45.65;100455.81;5013447;28;20065;-75
2020/12/21 00:14:04;;;;;;;6.82;4.05;;;;;;;20.92;45.67;100454.06;5013396;28;20069;-77
2020/12/21 00:16:39;;;;;;;8.43;4.20;;;;;;;20.90;45.58;100447.97;5003539;28;20078;-75
2020/12/21 00:19:05;;;;;;;7.00;3.55;;;;;;;20.89;45.71;100451.50;4994177;28;20081;-75
2020/12/21 00:21:31;;;;;;;6.47;3.38;;;;;;;20.91;45.56;100446.19;4993789;28;20030;-77
2020/12/21 00:23:56;;;;;;;7.85;3.92;;;;;;;20.89;45.66;100438.31;4993756;28;20091;-73
2020/12/21 00:26:22;;;;;;;7.28;3.70;;;;;;;20.90;45.64;100440.06;4993659;28;20031;-73
2020/12/21 00:28:47;;;;;;;7.80;3.80;;;;;;;20.90;45.55;100439.16;4993678;28;20039;-76
2020/12/21 00:31:21;;;;;;;6.60;3.50;;;;;;;20.86;45.42;100443.66;5008530;28;20120;-75
2020/12/21 00:33:46;;;;;;;7.22;3.97;;;;;;;20.87;45.66;100434.84;4993783;28;20105;-74
2020/12/21 00:36:12;;;;;;;5.93;3.00;;;;;;;20.86;45.76;100430.47;4992737;28;20592;-75
2020/12/21 00:38:37;;;;;;;5.18;2.97;;;;;;;20.87;45.66;100426.06;4992501;28;20022;-76
2020/12/21 00:41:07;;;;;;;6.25;2.97;;;;;;;20.84;45.67;100433.16;4993487;28;20031;-75
2020/12/21 00:43:32;;;;;;;7.40;3.20;;;;;;;20.86;45.60;100427.84;4993453;28;20446;-74
2020/12/21 00:45:58;;;;;;;6.43;3.00;;;;;;;20.86;45.73;100424.34;4992710;28;20034;-72
2020/12/21 00:48:24;;;;;;;7.95;3.05;;;;;;;20.86;45.69;100435.75;5012985;28;20369;-75
2020/12/21 00:50:50;;;;;;;6.40;3.15;;;;;;;20.86;45.76;100425.22;5013031;28;20050;-73
2020/12/21 00:53:15;;;;;;;5.93;3.00;;;;;;;20.86;45.75;100427.84;5012880;28;20030;-75
2020/12/21 00:55:40;;;;;;;5.47;3.33;;;;;;;20.85;45.66;100415.56;5012763;28;20042;-75
2020/12/21 00:58:07;;;;;;;4.95;2.72;;;;;;;20.86;45.70;100416.44;5013030;28;20116;-74
2020/12/21 01:00:34;;;;;;;6.70;2.85;;;;;;;20.86;45.61;100422.56;5012486;28;20034;-73
2020/12/21 01:03:01;;;;;;;5.20;2.70;;;;;;;20.86;45.57;100419.94;5012646;28;20041;-78
2020/12/21 01:05:26;;;;;;;5.20;2.83;;;;;;;20.86;45.63;100414.66;5012818;28;20046;-75
2020/12/21 01:07:51;;;;;;;3.70;2.45;;;;;;;20.86;45.68;100416.44;5011633;28;20453;-75
2020/12/21 01:10:18;;;;;;;5.38;2.60;;;;;;;20.86;45.73;100422.56;5012587;28;20034;-74
2020/12/21 01:12:43;;;;;;;5.70;2.90;;;;;;;20.87;45.60;100423.44;5012747;28;20049;-74
2020/12/21 01:15:10;;;;;;;4.80;2.35;;;;;;;20.85;45.56;100423.47;5012412;28;20423;-75
2020/12/21 01:17:35;;;;;;;4.82;2.58;;;;;;;20.86;45.49;100413.81;4993990;28;20506;-74
2020/12/21 01:20:00;;;;;;;3.08;1.95;;;;;;;20.84;45.58;100419.09;4993006;28;20035;-75
2020/12/21 01:22:26;;;;;;;7.53;3.08;;;;;;;20.84;45.62;100411.19;4992864;28;20042;-76
2020/12/21 01:24:51;;;;;;;8.13;3.25;;;;;;;20.82;45.56;100415.63;4993057;28;20517;-79
2020/12/21 01:27:17;;;;;;;4.65;2.38;;;;;;;20.82;45.65;100407.72;5015614;28;20033;-75
2020/12/21 01:29:42;;;;;;;7.22;3.28;;;;;;;20.82;45.57;100411.25;5032134;28;20041;-72
2020/12/21 01:32:07;;;;;;;7.32;2.70;;;;;;;20.82;45.64;100407.72;5031961;28;20033;-78
2020/12/21 01:34:33;;;;;;;5.38;2.33;;;;;;;20.82;45.66;100415.63;5031217;28;20060;-75
2020/12/21 01:36:58;;;;;;;6.47;2.50;;;;;;;20.82;45.52;100413.88;5032112;28;20065;-75
2020/12/21 01:39:23;;;;;;;4.65;2.33;;;;;;;20.80;45.49;100423.56;5032242;28;20112;-74
2020/12/21 01:41:49;;;;;;;4.70;2.40;;;;;;;20.81;45.67;100413.88;5032145;28;20033;-75
2020/12/21 01:44:15;;;;;;;5.93;2.88;;;;;;;20.80;45.44;100414.78;5030671;28;20034;-74
2020/12/21 01:46:41;;;;;;;5.57;2.30;;;;;;;20.80;45.76;100422.69;5021646;28;20110;-73
2020/12/21 01:49:06;;;;;;;4.85;2.40;;;;;;;20.80;45.66;100423.56;4996827;28;20113;-80
2020/12/21 01:51:32;;;;;;;5.45;2.50;;;;;;;20.79;45.44;100413.94;4996706;28;20106;-74
2020/12/21 01:53:58;;;;;;;5.82;2.58;;;;;;;20.79;45.47;100421.84;4996748;28;20069;-76
2020/12/21 01:56:24;;;;;;;4.78;2.40;;;;;;;20.80;45.62;100420.06;4995542;28;20070;-73
2020/12/21 01:58:50;;;;;;;5.50;2.60;;;;;;;20.79;45.47;100427.09;4996234;28;20038;-75
2020/12/21 02:01:17;;;;;;;4.78;2.45;;;;;;;20.79;45.57;100423.59;4996514;28;20523;-76
2020/12/21 02:03:43;;;;;;;6.22;2.65;;;;;;;20.79;45.65;100416.56;4995286;28;20042;-73
2020/12/21 02:06:10;;;;;;;3.78;2.15;;;;;;;20.78;45.59;100417.47;4996385;28;20030;-73
2020/12/21 02:08:36;;;;;;;5.03;2.10;;;;;;;20.78;45.55;100411.34;4996444;28;20030;-73
2020/12/21 02:11:04;;;;;;;4.20;2.00;;;;;;;20.78;45.47;100419.25;4996431;28;20495;-75
2020/12/21 02:13:29;;;;;;;5.43;2.17;;;;;;;20.77;45.60;100405.19;4995910;28;20039;-75
2020/12/21 02:15:55;;;;;;;3.70;2.08;;;;;;;20.77;45.67;100410.47;4995985;28;20035;-77
2020/12/21 02:18:20;;;;;;;4.75;2.05;;;;;;;20.77;45.60;100409.59;4996245;28;20034;-75
2020/12/21 02:20:45;;;;;;;4.00;1.58;;;;;;;20.77;45.46;100412.25;4996329;28;20808;-75
2020/12/21 02:23:11;;;;;;;4.80;2.20;;;;;;;20.76;45.60;100407.88;4996172;28;20109;-77
2020/12/21 02:25:36;;;;;;;4.90;2.42;;;;;;;20.76;45.59;100405.22;4996110;28;20045;-77
2020/12/21 02:28:02;;;;;;;4.65;2.30;;;;;;;20.76;45.43;100416.63;4995791;28;20557;-76
2020/12/21 02:30:27;;;;;;;3.70;1.67;;;;;;;20.75;45.62;100408.72;4995024;28;20476;-75
2020/12/21 02:32:53;;;;;;;4.57;2.03;;;;;;;20.75;45.47;100414.00;4994840;28;20380;-74
2020/12/21 02:35:18;;;;;;;5.38;1.52;;;;;;;20.77;45.40;100409.59;4995949;28;20061;-76
2020/12/21 02:37:44;;;;;;;4.20;2.00;;;;;;;20.76;45.47;100400.81;4996055;28;20491;-74
2020/12/21 02:40:09;;;;;;;3.15;1.45;;;;;;;20.76;45.40;100397.34;4997385;28;20030;-74
2020/12/21 02:42:35;;;;;;;2.80;1.50;;;;;;;20.76;45.40;100397.34;5015044;28;20023;-75
2020/12/21 02:45:00;;;;;;;4.22;1.60;;;;;;;20.77;45.32;100401.72;5015461;28;20121;-76
2020/12/21 02:47:26;;;;;;;3.45;1.88;;;;;;;20.76;45.42;100400.81;5009034;28;20076;-73
2020/12/21 02:49:51;;;;;;;2.85;1.60;;;;;;;20.76;45.60;100399.97;5015124;28;20045;-76
2020/12/21 02:52:17;;;;;;;3.25;1.95;;;;;;;20.76;45.35;100397.34;5015229;28;20426;-73
2020/12/21 02:54:43;;;;;;;4.30;1.65;;;;;;;20.76;45.35;100395.56;5015324;28;20041;-76
2020/12/21 02:57:09;;;;;;;4.03;1.70;;;;;;;20.77;45.44;100399.06;5014791;28;20038;-74
2020/12/21 02:59:35;;;;;;;3.65;1.75;;;;;;;20.76;45.47;100402.59;5014519;28;20084;-73
2020/12/21 03:02:00;;;;;;;4.95;1.80;;;;;;;20.75;45.46;100401.72;5014650;28;20062;-75
2020/12/21 03:04:26;;;;;;;4.40;1.92;;;;;;;20.75;45.31;100414.00;5015079;28;20122;-76
2020/12/21 03:06:51;;;;;;;3.42;1.42;;;;;;;20.76;45.49;100403.44;5014807;28;20041;-72
2020/12/21 03:09:16;;;;;;;5.55;1.90;;;;;;;20.75;45.55;100393.81;5015040;28;20046;-75
2020/12/21 03:11:46;;;;;;;4.28;1.63;;;;;;;20.76;45.29;100400.81;5029925;28;20041;-77
2020/12/21 03:14:11;;;;;;;4.65;1.98;;;;;;;20.76;45.48;100400.81;5013711;28;20401;-75
2020/12/21 03:16:37;;;;;;;3.13;1.75;;;;;;;20.75;45.36;100393.81;5004118;28;20125;-74
2020/12/21 03:19:02;;;;;;;3.65;1.50;;;;;;;20.75;45.30;100387.66;5010339;28;20441;-74
2020/12/21 03:21:27;;;;;;;3.47;1.40;;;;;;;20.75;45.31;100392.94;4995305;28;20040;-73
2020/12/21 03:23:53;;;;;;;3.40;1.42;;;;;;;20.74;45.46;100391.19;4995201;28;20034;-76
2020/12/21 03:26:18;;;;;;;6.00;1.92;;;;;;;20.74;45.33;100389.41;4998583;28;20057;-77
2020/12/21 03:28:44;;;;;;;4.65;1.52;;;;;;;20.74;45.37;100385.94;5014742;28;20033;-73
2020/12/21 03:31:09;;;;;;;4.80;1.83;;;;;;;20.74;45.50;100378.88;5014614;28;20512;-75
2020/12/21 03:33:35;;;;;;;3.55;1.75;;;;;;;20.75;45.30;100377.13;5014512;28;20038;-75
2020/12/21 03:36:00;;;;;;;3.85;1.45;;;;;;;20.75;45.45;100380.66;5014381;28;20095;-73
2020/12/21 03:38:26;;;;;;;3.85;1.50;;;;;;;20.76;45.22;100381.53;5014039;28;20064;-77
2020/12/21 03:40:51;;;;;;;4.10;1.67;;;;;;;20.75;45.34;100371.88;5014379;28;20109;-73
2020/12/21 03:43:19;;;;;;;3.28;1.58;;;;;;;20.75;45.37;100371.88;5014417;28;20165;-74
2020/12/21 03:45:49;;;;;;;4.22;1.52;;;;;;;20.74;45.29;100367.50;5014190;28;20058;-74
2020/12/21 03:48:15;;;;;;;4.88;1.60;;;;;;;20.75;45.44;100377.13;5013665;28;20038;-75
2020/12/21 03:50:40;;;;;;;3.92;1.27;;;;;;;20.74;45.36;100370.13;5014139;28;20037;-72
2020/12/21 03:53:06;;;;;;;4.90;1.67;;;;;;;20.73;45.28;100376.28;5013847;28;20061;-74
2020/12/21 03:55:31;;;;;;;3.63;1.50;;;;;;;20.71;45.43;100362.28;5013777;28;20450;-74
2020/12/21 03:57:57;;;;;;;4.30;1.75;;;;;;;20.74;45.20;100367.50;5013898;28;20038;-72
2020/12/21 04:00:22;;;;;;;5.10;1.92;;;;;;;20.72;45.28;100353.50;5013888;28;20065;-73
2020/12/21 04:02:47;;;;;;;3.75;1.25;;;;;;;20.72;45.37;100356.13;5013805;28;20446;-73
2020/12/21 04:05:13;;;;;;;4.20;1.40;;;;;;;20.71;45.38;100355.22;5013839;28;20037;-73
2020/12/21 04:07:39;;;;;;;4.88;1.70;;;;;;;20.71;45.22;100357.88;5013854;28;20061;-75
2020/12/21 04:10:08;;;;;;;4.97;1.73;;;;;;;20.71;45.27;100364.91;5028643;28;20066;-73
2020/12/21 04:12:35;;;;;;;3.67;1.67;;;;;;;20.72;45.45;100369.28;5013887;28;20109;-76
2020/12/21 04:15:01;;;;;;;4.07;1.50;;;;;;;20.72;45.27;100362.25;5013541;28;20044;-76
2020/12/21 04:17:27;;;;;;;4.55;1.80;;;;;;;20.71;45.26;100362.28;4996196;28;20128;-75
2020/12/21 04:19:52;;;;;;;4.85;1.92;;;;;;;20.71;45.29;100364.91;4994079;28;20070;-73
2020/12/21 04:22:17;;;;;;;3.00;1.42;;;;;;;20.71;45.32;100359.66;4993764;28;20034;-76
2020/12/21 04:24:43;;;;;;;4.60;2.22;;;;;;;20.69;45.34;100359.69;4993764;28;20418;-75
2020/12/21 04:27:08;;;;;;;5.07;2.05;;;;;;;20.69;45.33;100360.53;4993974;28;20034;-75
2020/12/21 04:29:33;;;;;;;3.72;1.48;;;;;;;20.71;45.12;100363.13;4993851;28;20037;-77
2020/12/21 04:31:59;;;;;;;4.20;1.52;;;;;;;20.72;45.22;100350.84;4993881;28;20044;-75
2020/12/21 04:34:25;;;;;;;2.72;1.30;;;;;;;20.71;45.33;100346.47;4993837;28;20030;-76
2020/12/21 04:36:51;;;;;;;4.60;1.52;;;;;;;20.70;45.13;100337.72;4993309;28;20100;-75
2020/12/21 04:39:17;;;;;;;5.82;1.42;;;;;;;20.71;45.06;100335.94;4993606;28;20058;-75
2020/12/21 04:41:54;;;;;;;4.10;1.40;;;;;;;20.67;45.18;100335.16;5008083;28;20502;-74
2020/12/21 04:44:21;;;;;;;3.45;1.30;;;;;;;20.69;45.06;100331.59;5013389;28;20057;-74
2020/12/21 04:46:50;;;;;;;4.10;1.45;;;;;;;20.67;45.14;100332.53;5012839;28;20037;-74
2020/12/21 04:49:16;;;;;;;2.75;1.50;;;;;;;20.68;45.19;100331.63;5013076;28;20034;-74
2020/12/21 04:51:44;;;;;;;3.20;1.30;;;;;;;20.66;45.24;100329.00;5012863;28;20042;-76
2020/12/21 04:54:10;;;;;;;3.38;1.23;;;;;;;20.67;45.13;100324.63;5012763;28;20087;-72
2020/12/21 04:56:36;;;;;;;4.65;1.63;;;;;;;20.67;45.32;100319.34;5012766;28;20038;-76
2020/12/21 04:59:02;;;;;;;2.85;1.23;;;;;;;20.67;45.31;100314.94;5012946;28;20038;-76
2020/12/21 05:01:27;;;;;;;4.15;1.65;;;;;;;20.65;45.23;100310.63;5010285;28;20367;-75
2020/12/21 05:03:53;;;;;;;5.88;1.60;;;;;;;20.64;44.91;100308.88;4992960;28;20113;-76
2020/12/21 05:06:18;;;;;;;3.50;1.25;;;;;;;20.64;45.33;100296.56;4992993;28;20030;-75
2020/12/21 05:08:45;;;;;;;4.78;1.70;;;;;;;20.65;45.28;100297.47;4992976;28;20034;-76
2020/12/21 05:11:11;;;;;;;3.22;1.23;;;;;;;20.64;45.12;100288.69;4993250;28;20070;-75
2020/12/21 05:13:37;;;;;;;3.60;1.88;;;;;;;20.64;45.06;100290.47;4993094;28;20073;-76
2020/12/21 05:16:03;;;;;;;3.05;1.33;;;;;;;20.65;45.07;100295.69;4998339;28;20665;-75
2020/12/21 05:18:35;;;;;;;3.22;1.50;;;;;;;20.66;45.18;100294.78;5012595;28;20033;-73
2020/12/21 05:21:05;;;;;;;3.90;1.40;;;;;;;20.66;45.18;100299.19;5012084;28;20045;-73
2020/12/21 05:23:32;;;;;;;3.75;1.70;;;;;;;20.66;45.00;100296.56;5012873;28;20034;-77
2020/12/21 05:26:00;;;;;;;4.20;1.70;;;;;;;20.67;45.20;100288.63;5012581;28;20387;-75
2020/12/21 05:28:30;;;;;;;4.07;1.60;;;;;;;20.67;44.87;100287.75;5032335;28;20045;-76
2020/12/21 05:31:01;;;;;;;4.85;1.35;;;;;;;20.68;44.99;100290.34;5032030;28;20044;-75
2020/12/21 05:33:27;;;;;;;4.03;1.40;;;;;;;20.66;45.09;100284.25;5032313;28;20033;-76
2020/12/21 05:35:56;;;;;;;2.90;1.25;;;;;;;20.67;45.12;100279.88;5031958;28;20088;-73
2020/12/21 05:38:27;;;;;;;3.38;1.33;;;;;;;20.66;44.89;100284.25;5032169;28;20038;-74
2020/12/21 05:41:06;;;;;;;3.20;1.30;;;;;;;20.67;44.95;100282.50;5030999;28;20030;-75
2020/12/21 05:43:31;;;;;;;4.32;1.60;;;;;;;20.68;44.80;100281.59;5032116;28;20038;-74
2020/12/21 05:46:20;;;;;;;5.38;1.60;;;;;;;20.64;45.38;100278.16;5030651;28;20613;-75
2020/12/21 05:48:47;;;;;;;3.17;1.40;;;;;;;20.66;45.05;100280.75;5012534;28;20034;-75
2020/12/21 05:51:36;;;;;;;3.97;1.50;;;;;;;20.64;45.10;100277.28;5012001;28;20034;-76
2020/12/21 05:54:06;;;;;;;3.53;1.73;;;;;;;20.65;45.13;100282.50;5012296;28;20121;-75
2020/12/21 05:56:35;;;;;;;2.85;1.65;;;;;;;20.66;45.13;100278.97;5012153;28;20037;-76
2020/12/21 05:59:02;;;;;;;4.47;1.40;;;;;;;20.67;44.83;100277.22;5012426;28;20041;-75
2020/12/21 06:01:27;;;;;;;4.35;1.88;;;;;;;20.65;44.89;100271.13;5011131;28;20039;-74
2020/12/21 06:04:03;;;;;;;3.38;1.15;;;;;;;20.64;44.91;100266.75;5012074;28;20398;-75
2020/12/21 06:06:30;;;;;;;4.55;1.33;;;;;;;20.66;45.15;100257.06;5012284;28;20026;-73
2020/12/21 06:09:05;;;;;;;3.92;1.50;;;;;;;20.64;45.04;100257.06;5027329;28;20380;-74
2020/12/21 06:11:34;;;;;;;2.60;1.15;;;;;;;20.63;45.07;100255.34;5012270;28;20037;-74
2020/12/21 06:14:04;;;;;;;3.00;1.23;;;;;;;20.64;45.01;100253.59;5010891;28;20046;-76
2020/12/21 06:16:32;;;;;;;4.30;1.58;;;;;;;20.65;44.76;100256.19;5011508;28;20049;-75
2020/12/21 06:18:58;;;;;;;2.55;1.10;;;;;;;20.66;44.99;100254.44;5011555;28;20073;-74
2020/12/21 06:21:29;;;;;;;3.28;1.60;;;;;;;20.66;45.02;100255.28;5012274;28;20041;-75
2020/12/21 06:23:54;;;;;;;2.85;1.35;;;;;;;20.67;44.93;100259.66;5011799;28;20470;-76
2020/12/21 06:26:31;;;;;;;3.17;1.17;;;;;;;20.66;45.01;100264.97;5016332;28;20112;-73
2020/12/21 06:29:21;;;;;;;3.90;1.52;;;;;;;20.62;44.95;100258.91;5031660;28;20116;-76
2020/12/21 06:31:47;;;;;;;3.90;1.50;;;;;;;20.65;44.82;100256.19;5023708;28;20116;-75
2020/12/21 06:34:18;;;;;;;3.13;1.35;;;;;;;20.65;44.81;100253.53;5033796;28;20033;-73
2020/12/21 06:36:46;;;;;;;2.63;1.30;;;;;;;20.66;44.83;100249.16;5035516;28;20498;-77
2020/12/21 06:39:25;;;;;;;3.22;1.13;;;;;;;20.64;44.83;100256.22;5035432;28;20029;-74
2020/12/21 06:42:13;;;;;;;4.60;1.20;;;;;;;20.63;44.91;100257.97;5035425;28;20067;-75
2020/12/21 06:44:40;;;;;;;4.25;1.88;;;;;;;20.65;44.92;100250.91;5035476;28;20047;-73
2020/12/21 06:47:07;;;;;;;3.10;1.15;;;;;;;20.64;44.76;100251.81;5021995;28;20529;-74
2020/12/21 06:49:33;;;;;;;4.45;1.20;;;;;;;20.66;44.93;100246.53;4994826;28;20042;-74
2020/12/21 06:51:59;;;;;;;3.00;1.17;;;;;;;20.66;44.84;100246.53;4995984;28;20376;-72
2020/12/21 06:54:24;;;;;;;3.92;1.48;;;;;;;20.65;44.92;100231.63;4994662;28;20054;-73
2020/12/21 06:56:51;;;;;;;2.05;1.17;;;;;;;20.65;44.97;100235.13;4995485;28;20420;-73
2020/12/21 06:59:20;;;;;;;4.43;1.73;;;;;;;20.65;44.74;100237.75;4995942;28;20034;-75
2020/12/21 07:01:47;;;;;;;3.30;1.35;;;;;;;20.65;44.94;100227.22;4995316;28;20030;-73
2020/12/21 07:04:18;;;;;;;3.80;1.55;;;;;;;20.64;44.77;100228.13;4995890;28;20390;-72
2020/12/21 07:06:45;;;;;;;3.25;1.10;;;;;;;20.64;44.75;100220.22;4995475;28;20030;-76
2020/12/21 07:09:12;;;;;;;3.47;1.20;;;;;;;20.65;44.89;100216.69;4994400;28;20145;-75
2020/12/21 07:11:38;;;;;;;2.15;1.17;;;;;;;20.66;44.79;100220.19;4995679;28;20052;-76
2020/12/21 07:14:12;;;;;;;2.15;1.25;;;;;;;20.63;44.76;100204.47;4995497;28;20073;-75
2020/12/21 07:16:38;;;;;;;4.82;1.35;;;;;;;20.66;44.70;100218.41;5000422;28;20030;-74
2020/12/21 07:19:03;;;;;;;4.32;1.27;;;;;;;20.65;44.79;100229.00;5014729;28;20564;-75
2020/12/21 07:21:30;;;;;;;4.75;1.52;;;;;;;20.66;44.82;100230.72;5014858;28;20487;-75
2020/12/21 07:23:57;;;;;;;3.30;1.55;;;;;;;20.65;44.87;100232.47;5013533;28;20041;-74
2020/12/21 07:26:24;;;;;;;2.50;1.02;;;;;;;20.66;44.69;100223.69;5014942;28;20041;-77
2020/12/21 07:28:50;;;;;;;5.72;1.52;;;;;;;20.65;44.80;100223.72;5014770;28;20037;-75
2020/12/21 07:31:18;;;;;;;4.15;1.23;;;;;;;20.64;44.81;100230.75;5014524;28;20026;-73
2020/12/21 07:34:02;;;;;;;3.65;1.55;;;;;;;20.62;44.60;100221.16;5014798;28;20442;-75
2020/12/21 07:36:29;;;;;;;2.92;1.25;;;;;;;20.64;44.74;100228.13;5014830;28;20156;-75
2020/12/21 07:39:05;;;;;;;2.97;1.42;;;;;;;20.62;44.66;100215.91;5014758;28;20461;-76
2020/12/21 07:41:33;;;;;;;3.40;1.50;;;;;;;20.63;44.89;100218.47;5001513;28;20029;-74
2020/12/21 07:44:06;;;;;;;2.85;1.10;;;;;;;20.63;44.85;100222.91;4992724;28;20050;-72
2020/12/21 07:46:39;;;;;;;8.77;1.35;;;;;;;20.63;44.81;100218.47;4991769;28;20030;-74
2020/12/21 07:49:07;;;;;;;9.75;1.77;;;;;;;20.63;44.91;100207.94;4991101;28;20047;-76
2020/12/21 07:51:35;;;;;;;4.05;1.55;;;;;;;20.63;44.74;100207.94;4994607;28;20058;-78
2020/12/21 07:54:01;;;;;;;11.48;1.73;;;;;;;20.66;44.67;100207.03;4993965;28;20038;-74
2020/12/21 07:56:27;;;;;;;4.50;1.63;;;;;;;20.65;44.81;100200.88;4994365;28;20409;-78
2020/12/21 07:58:53;;;;;;;7.03;1.67;;;;;;;20.65;44.86;100208.78;4994541;28;20065;-77
2020/12/21 08:01:22;;;;;;;6.43;1.20;;;;;;;20.69;44.70;100206.97;4994153;28;20061;-79
2020/12/21 08:03:53;;;;;;;4.00;1.30;;;;;;;20.65;44.77;100208.78;4994326;28;20038;-74
2020/12/21 08:06:24;;;;;;;3.75;1.15;;;;;;;20.67;44.91;100214.03;4994383;28;20080;-76
2020/12/21 08:08:50;;;;;;;5.60;1.50;;;;;;;20.69;44.96;100204.34;4994422;28;20027;-78
2020/12/21 08:11:19;;;;;;;7.65;1.30;;;;;;;20.70;44.68;100200.81;4994243;28;20037;-75
2020/12/21 08:13:50;;;;;;;7.40;2.05;;;;;;;20.69;44.65;100210.44;4994128;28;20495;-77
2020/12/21 08:16:23;;;;;;;10.15;2.03;;;;;;;20.70;44.77;100211.34;4996263;28;20054;-77
2020/12/21 08:18:50;;;;;;;16.70;2.30;;;;;;;20.68;44.81;100207.88;4994681;28;20120;-76
2020/12/21 08:21:15;;;;;;;8.02;2.10;;;;;;;20.71;45.16;100209.56;4992593;28;20034;-74
2020/12/21 08:23:41;;;;;;;8.55;1.50;;;;;;;20.71;44.71;100204.28;4992809;28;20418;-76
2020/12/21 08:26:14;;;;;;;8.50;1.98;;;;;;;20.70;44.60;100213.97;4999040;28;20041;-74
2020/12/21 08:28:45;;;;;;;10.38;1.70;;;;;;;20.69;44.90;100213.09;5033221;28;20041;-77
2020/12/21 08:31:14;;;;;;;14.27;1.95;;;;;;;20.71;44.79;100206.91;5033152;28;20045;-77
2020/12/21 08:33:56;;;;;;;4.43;1.65;;;;;;;20.73;44.77;100197.22;5033294;28;20038;-77
2020/12/21 08:36:27;;;;;;;6.03;2.10;;;;;;;20.75;44.91;100198.06;5033210;28;20096;-75
2020/12/21 08:38:53;;;;;;;11.07;1.67;;;;;;;20.74;44.95;100199.81;5033120;28;20567;-78
2020/12/21 08:41:19;;;;;;;6.32;1.73;;;;;;;20.75;45.03;100193.66;5032092;28;20037;-77
2020/12/21 08:43:45;;;;;;;5.28;1.48;;;;;;;20.77;44.92;100191.03;5032130;28;20130;-76
2020/12/21 08:46:13;;;;;;;7.93;2.17;;;;;;;20.76;45.02;100197.19;5031642;28;20549;-79
2020/12/21 08:48:41;;;;;;;5.38;1.58;;;;;;;20.75;44.78;100198.06;5032861;28;20109;-79
2020/12/21 08:51:06;;;;;;;3.28;1.33;;;;;;;20.75;45.13;100188.41;5029242;28;20133;-77
2020/12/21 08:53:32;;;;;;;6.38;1.70;;;;;;;20.75;44.91;100195.44;5013165;28;20117;-73
2020/12/21 08:55:58;;;;;;;9.23;1.17;;;;;;;20.76;44.84;100184.03;5012036;28;20034;-73
2020/12/21 08:58:23;;;;;;;7.63;1.77;;;;;;;20.78;44.83;100187.50;5012277;28;20040;-75
2020/12/21 09:00:49;;;;;;;9.30;1.65;;;;;;;20.79;44.80;100184.81;5012831;28;20060;-74
2020/12/21 09:03:14;;;;;;;12.57;2.20;;;;;;;20.79;44.89;100173.38;5012756;28;20036;-73
2020/12/21 09:05:39;;;;;;;7.10;1.95;;;;;;;20.84;44.78;100175.03;5004462;28;20065;-74
2020/12/21 09:08:05;;;;;;;10.63;2.33;;;;;;;20.81;44.86;100172.47;5032428;28;20038;-76
2020/12/21 09:10:30;;;;;;;17.75;3.60;;;;;;;20.82;45.01;100162.78;5031992;28;20037;-77
2020/12/21 09:12:56;;;;;;;10.27;3.15;;;;;;;20.87;44.92;100165.31;5016946;28;20437;-77
2020/12/21 09:15:21;;;;;;;13.18;3.13;;;;;;;20.86;45.00;100156.53;5012396;28;20600;-73
2020/12/21 09:17:47;;;;;;;6.65;3.03;;;;;;;20.86;44.89;100151.28;5009932;28;20042;-76
2020/12/21 09:20:13;;;;;;;7.28;2.92;;;;;;;20.89;44.96;100148.56;5012909;28;20526;-76
2020/12/21 09:22:38;;;;;;;10.50;2.53;;;;;;;20.88;44.94;100146.84;5004092;28;20074;-77
2020/12/21 09:25:04;;;;;;;13.90;3.42;;;;;;;20.89;45.08;100142.44;5013902;28;20069;-78
2020/12/21 09:27:29;;;;;;;10.88;3.38;;;;;;;20.89;45.09;100139.78;5018779;28;20045;-78
2020/12/21 09:29:55;;;;;;;10.73;2.28;;;;;;;20.89;45.08;100132.78;5003045;28;20042;-76
2020/12/21 09:32:20;;;;;;;10.63;2.60;;;;;;;20.90;44.99;100126.59;5001438;28;20038;-78
2020/12/21 09:34:45;;;;;;;7.90;2.38;;;;;;;20.92;44.81;100129.19;5006510;28;20034;-77
2020/12/21 09:37:12;;;;;;;13.38;3.25;;;;;;;20.91;44.94;100136.25;4993158;28;20045;-78
2020/12/21 09:39:38;;;;;;;7.70;2.70;;;;;;;20.91;45.12;100145.88;4993320;28;20042;-78
2020/12/21 09:42:04;;;;;;;5.05;2.00;;;;;;;20.92;45.01;100150.25;4992746;28;20118;-75
2020/12/21 09:44:30;;;;;;;7.13;2.20;;;;;;;20.92;44.99;100148.50;5001448;28;20035;-76
2020/12/21 09:46:55;;;;;;;4.80;2.20;;;;;;;20.92;44.91;100145.88;4990450;28;20046;-76
2020/12/21 09:49:21;;;;;;;13.18;2.65;;;;;;;20.91;44.81;100132.72;5007331;28;20466;-77
2020/12/21 09:51:53;;;;;;;10.75;2.60;;;;;;;20.89;44.96;100121.34;5032240;28;20037;-78
2020/12/21 09:54:20;;;;;;;4.80;2.20;;;;;;;20.91;45.00;100112.53;5031944;28;20037;-76
2020/12/21 09:56:50;;;;;;;6.40;1.83;;;;;;;20.92;44.84;100101.09;5016696;28;20104;-76
2020/12/21 09:59:16;;;;;;;5.57;1.77;;;;;;;20.95;44.96;100097.50;5019665;28;20093;-77
2020/12/21 10:01:41;;;;;;;6.78;1.83;;;;;;;20.94;44.89;100098.41;5020632;28;20026;-77
2020/12/21 10:04:07;;;;;;;5.10;1.90;;;;;;;20.95;44.84;100077.28;5012816;28;20046;-76
2020/12/21 10:06:35;;;;;;;4.85;2.00;;;;;;;20.95;44.87;100077.28;5032025;28;20033;-76
2020/12/21 10:09:01;;;;;;;5.60;1.90;;;;;;;20.97;44.79;100066.72;5034706;28;20509;-78
2020/12/21 10:11:26;;;;;;;5.55;2.03;;;;;;;20.98;45.00;100058.75;5035727;28;20100;-78
2020/12/21 10:13:51;;;;;;;4.97;2.35;;;;;;;21.00;44.68;100056.09;5032021;28;20169;-74
2020/12/21 10:16:17;;;;;;;6.00;2.03;;;;;;;20.99;44.92;100049.97;5017132;28;20045;-76
2020/12/21 10:18:42;;;;;;;4.82;1.85;;;;;;;20.99;44.96;100039.41;5016038;28;20064;-75
2020/12/21 10:21:07;;;;;;;4.85;1.90;;;;;;;21.00;44.69;100040.31;5015851;28;20034;-78
2020/12/21 10:23:33;;;;;;;5.05;1.63;;;;;;;21.02;44.76;100030.56;5015021;28;20038;-78
2020/12/21 10:26:03;;;;;;;4.03;1.75;;;;;;;21.05;44.91;100027.00;4999315;28;20088;-76
2020/12/21 10:28:28;;;;;;;5.70;1.65;;;;;;;21.06;44.85;100031.34;5017789;28;20047;-78
2020/12/21 10:30:54;;;;;;;2.85;1.52;;;;;;;21.08;44.70;100021.66;5015442;28;20026;-75
2020/12/21 10:33:19;;;;;;;3.47;1.67;;;;;;;21.05;44.94;100014.69;5015687;28;20026;-75
2020/12/21 10:35:44;;;;;;;6.30;1.98;;;;;;;21.07;44.43;99999.69;5014540;28;20076;-76
2020/12/21 10:38:10;;;;;;;6.25;2.17;;;;;;;21.06;45.03;99997.97;5015182;28;20038;-78
2020/12/21 10:40:35;;;;;;;8.63;1.60;;;;;;;21.06;44.76;99992.69;5015297;28;20034;-78
2020/12/21 10:43:01;;;;;;;4.15;1.40;;;;;;;21.07;44.80;99983.88;5015588;28;20057;-75
2020/12/21 10:45:26;;;;;;;3.65;1.70;;;;;;;21.08;44.78;99979.50;5015197;28;20062;-76
2020/12/21 10:47:52;;;;;;;3.50;1.70;;;;;;;21.08;44.64;99959.25;5014778;28;20084;-75
2020/12/21 10:50:18;;;;;;;4.57;1.42;;;;;;;21.08;44.56;99967.16;5008275;28;20438;-74
2020/12/21 10:52:43;;;;;;;5.85;1.50;;;;;;;21.10;44.59;99962.72;4995582;28;20035;-73
2020/12/21 10:55:09;;;;;;;3.67;1.30;;;;;;;21.10;44.54;99949.56;4995367;28;20030;-74
2020/12/21 10:57:40;;;;;;;3.63;1.55;;;;;;;21.12;44.45;99925.78;4995250;28;20039;-77
2020/12/21 11:00:06;;;;;;;3.25;1.35;;;;;;;21.13;44.41;99917.84;4997144;28;20854;-76
2020/12/21 11:02:32;;;;;;;3.38;1.30;;;;;;;21.15;44.41;99923.06;5014575;28;20029;-72
2020/12/21 11:04:57;;;;;;;3.58;1.33;;;;;;;21.14;44.69;99921.34;5013938;28;20038;-73
2020/12/21 11:07:22;;;;;;;3.08;1.25;;;;;;;21.13;44.63;99919.59;5014579;28;20044;-74
2020/12/21 11:09:48;;;;;;;8.15;1.33;;;;;;;21.09;44.55;99913.56;5014548;28;20034;-77
2020/12/21 11:12:13;;;;;;;10.05;1.85;;;;;;;21.10;44.63;99906.50;5013602;28;20034;-74
2020/12/21 11:14:38;;;;;;;7.13;1.70;;;;;;;21.12;44.61;99897.69;5014445;28;20041;-74
2020/12/21 11:17:04;;;;;;;6.80;1.90;;;;;;;21.12;44.49;99891.53;5009496;28;20046;-75
2020/12/21 11:19:29;;;;;;;7.57;1.38;;;;;;;21.10;44.37;99890.72;5014034;28;20449;-74
2020/12/21 11:21:55;;;;;;;11.43;1.80;;;;;;;21.10;44.15;99886.31;5014270;28;20040;-79
2020/12/21 11:24:20;;;;;;;7.57;1.83;;;;;;;21.08;44.36;99864.41;5014078;28;20069;-77